Airfield :
LOGIN :

Register | Disclaimer

   EN    FR    IT 

 










Legend :    VFR   Marginal VFR   IFR   Intensive IFR   Very Intensive IFR
Visi :
Ceiling :
>= 8 km
>= 3000ft
5 to 8 km
1000 to 3000 ft
1500m to 5 km
500 to 1000 ft
800 to 1500m
200 to 500 ft
< 800m
< 200 ft
Symbols :   Thunderstorms  Fog  Heavy snow  Heavy precipitations  Wind > 20 kt
SIGMETs :     Misc.  Thunderstorms  Icing  Turbulence  Mountain Waves  Volcanic Ashes






- Airport Elevation : 1895 ft


LSMM - Meiringen

CURRENT METAR :
  • 281350Z VRB08KT 9999 SCT097 21/02 Q1025 RMK BLU+

EXPIRED METARs :
  • 281320Z VRB08KT 9999 SCT100 21/04 Q1025 RMK BLU+
  • 281250Z 09008G18KT 020V140 9999 SCT094 21/07 Q1025 RMK BLU+
  • 281220Z VRB11KT 9999 SCT110 21/06 Q1026 RMK BLU+
  • 281150Z 07009KT 340V140 9999 BKN100 20/06 Q1026 RMK BLU
  • 281120Z 07012KT 030V120 9999 BKN100 19/06 Q1027 RMK BLU

Expired Forecast.



MET'MAP, your aeronautical weather chart ! - Copyright ORBIFLY December 2007 - Disclaimer

ORBIFLY MET'MAP TEAM :

Programming & Development : Alexandra Zaïnal
Concept & original design : Baudouin d'Aumeries
Assistance for programming : Marc-Olivier Méhu
Technical & hardware support : Manuel Goepfert

Contact : metmap@orbifly.com




SOURCES & CREDITS :

   NOAA